Pagrindinis puslapis
METAR-TAF:

METAR-TAF

Oro uostai :

Russian Mission, Aliaska, Jungtinės Amerikos Valstijos

platuma: 61-46-30N, ilguma: 161-19-10W, Aukštis: 16 m

Dabartinis oras

Ataskaita buvo paskelbta 7 minutes, ne 09:16 UTC
Vėjas 5 kt iš Vakarų
Temperatūra 11°C
Drėgmė 94%
Slėgis 1004 hPa
Matomumas: 16.1 km
Mažai debesys ne aukštis 1400 ft
Su prošvaistėmis ne aukštis 2200 ft
Apsiniaukę ne aukštis 6000 ft

METAR: PARS 160916Z AUTO 28005KT 10SM FEW014 BKN022 OVC060 11/10 A2966 RMK AO2 $

Laikas: 01:23 (09:23 UTC)


TAF: trūkstamas

Orai ataskaitas ir orų prognozės (METAR, TAF).

turimą stotys yra geltonos ir raudonos taškus žemėlapyje.

Perkelti pele per norėdami pamatyti stoties vardą.

Tada spustelėkite, norėdami matyti oro stebėjimo ir prognozės.

Norėdami pakeisti žemėlapį: spustelėkite ant žalios mygtukų su juodo kryžiaus žemyn,; žalią mygtuką su brūkšneliu, jei norite nutolinti; arba žalių rodyklių gretimoms žemėlapius.


METAR-TAF: